sensor_id;sensor_type;location;lat;lon;timestamp;P1;durP1;ratioP1;P2;durP2;ratioP2
64667;SDS011;51077;42.716;23.344;2022-12-17T00:00:48;25.23;;;15.43;;
64667;SDS011;51077;42.716;23.344;2022-12-17T00:03:32;24.55;;;15.35;;
64667;SDS011;51077;42.716;23.344;2022-12-17T00:06:16;27.85;;;16.20;;
64667;SDS011;51077;42.716;23.344;2022-12-17T00:09:01;23.48;;;15.00;;
64667;SDS011;51077;42.716;23.344;2022-12-17T00:11:45;26.42;;;15.75;;
64667;SDS011;51077;42.716;23.344;2022-12-17T00:14:28;25.48;;;15.10;;
64667;SDS011;51077;42.716;23.344;2022-12-17T00:17:12;26.67;;;16.05;;
64667;SDS011;51077;42.716;23.344;2022-12-17T00:19:56;25.90;;;15.82;;
64667;SDS011;51077;42.716;23.344;2022-12-17T00:22:40;27.08;;;16.27;;
64667;SDS011;51077;42.716;23.344;2022-12-17T00:25:24;24.90;;;15.85;;
64667;SDS011;51077;42.716;23.344;2022-12-17T00:28:09;22.20;;;14.52;;
64667;SDS011;51077;42.716;23.344;2022-12-17T00:30:54;23.55;;;15.40;;
64667;SDS011;51077;42.716;23.344;2022-12-17T00:33:38;23.60;;;15.10;;
64667;SDS011;51077;42.716;23.344;2022-12-17T00:36:22;24.15;;;15.32;;
64667;SDS011;51077;42.716;23.344;2022-12-17T00:39:06;25.90;;;16.13;;
64667;SDS011;51077;42.716;23.344;2022-12-17T00:41:49;21.50;;;14.25;;
64667;SDS011;51077;42.716;23.344;2022-12-17T00:44:33;20.48;;;13.90;;
64667;SDS011;51077;42.716;23.344;2022-12-17T00:47:17;21.83;;;13.68;;
64667;SDS011;51077;42.716;23.344;2022-12-17T00:50:02;23.58;;;14.35;;
64667;SDS011;51077;42.716;23.344;2022-12-17T00:52:46;22.33;;;13.43;;
64667;SDS011;51077;42.716;23.344;2022-12-17T00:55:30;24.65;;;14.32;;
64667;SDS011;51077;42.716;23.344;2022-12-17T00:58:14;22.48;;;13.82;;
64667;SDS011;51077;42.716;23.344;2022-12-17T01:00:58;22.30;;;13.55;;
64667;SDS011;51077;42.716;23.344;2022-12-17T01:03:42;20.23;;;13.13;;
64667;SDS011;51077;42.716;23.344;2022-12-17T01:06:26;19.33;;;12.88;;
64667;SDS011;51077;42.716;23.344;2022-12-17T01:09:10;21.42;;;13.13;;
64667;SDS011;51077;42.716;23.344;2022-12-17T01:11:54;21.95;;;13.45;;
64667;SDS011;51077;42.716;23.344;2022-12-17T01:14:38;23.38;;;14.75;;
64667;SDS011;51077;42.716;23.344;2022-12-17T01:17:22;21.73;;;13.30;;
64667;SDS011;51077;42.716;23.344;2022-12-17T01:20:06;22.75;;;13.70;;
64667;SDS011;51077;42.716;23.344;2022-12-17T01:22:50;18.40;;;12.68;;
64667;SDS011;51077;42.716;23.344;2022-12-17T01:25:34;19.70;;;13.63;;
64667;SDS011;51077;42.716;23.344;2022-12-17T01:28:22;21.20;;;12.48;;
64667;SDS011;51077;42.716;23.344;2022-12-17T01:31:07;21.02;;;13.02;;
64667;SDS011;51077;42.716;23.344;2022-12-17T01:33:52;18.33;;;12.70;;
64667;SDS011;51077;42.716;23.344;2022-12-17T01:36:36;19.88;;;13.10;;
64667;SDS011;51077;42.716;23.344;2022-12-17T01:39:19;20.23;;;11.95;;
64667;SDS011;51077;42.716;23.344;2022-12-17T01:42:03;19.75;;;13.00;;
64667;SDS011;51077;42.716;23.344;2022-12-17T01:44:53;22.00;;;13.13;;
64667;SDS011;51077;42.716;23.344;2022-12-17T01:50:37;18.33;;;11.25;;
64667;SDS011;51077;42.716;23.344;2022-12-17T01:53:26;18.88;;;10.90;;
64667;SDS011;51077;42.716;23.344;2022-12-17T01:56:13;18.00;;;11.55;;
64667;SDS011;51077;42.716;23.344;2022-12-17T01:59:15;20.52;;;11.48;;
64667;SDS011;51077;42.716;23.344;2022-12-17T02:02:02;20.30;;;11.88;;
64667;SDS011;51077;42.716;23.344;2022-12-17T02:04:46;16.75;;;11.35;;
64667;SDS011;51077;42.716;23.344;2022-12-17T02:13:53;18.15;;;9.98;;
64667;SDS011;51077;42.716;23.344;2022-12-17T02:16:56;16.42;;;9.60;;
64667;SDS011;51077;42.716;23.344;2022-12-17T02:26:34;17.30;;;10.10;;
64667;SDS011;51077;42.716;23.344;2022-12-17T02:29:19;15.20;;;9.95;;
64667;SDS011;51077;42.716;23.344;2022-12-17T02:32:05;17.55;;;10.48;;
64667;SDS011;51077;42.716;23.344;2022-12-17T02:34:50;14.48;;;9.35;;
64667;SDS011;51077;42.716;23.344;2022-12-17T02:37:35;14.55;;;9.25;;
64667;SDS011;51077;42.716;23.344;2022-12-17T02:40:19;16.88;;;9.35;;
64667;SDS011;51077;42.716;23.344;2022-12-17T02:43:06;15.38;;;9.52;;
64667;SDS011;51077;42.716;23.344;2022-12-17T02:45:51;15.85;;;8.73;;
64667;SDS011;51077;42.716;23.344;2022-12-17T02:48:36;13.88;;;8.88;;
64667;SDS011;51077;42.716;23.344;2022-12-17T02:51:21;17.17;;;9.90;;
64667;SDS011;51077;42.716;23.344;2022-12-17T02:54:27;15.27;;;9.98;;
64667;SDS011;51077;42.716;23.344;2022-12-17T02:57:12;12.35;;;8.63;;
64667;SDS011;51077;42.716;23.344;2022-12-17T02:59:56;13.75;;;9.25;;
64667;SDS011;51077;42.716;23.344;2022-12-17T03:02:40;14.18;;;8.57;;
64667;SDS011;51077;42.716;23.344;2022-12-17T03:05:24;12.63;;;8.75;;
64667;SDS011;51077;42.716;23.344;2022-12-17T03:08:08;13.68;;;8.98;;
64667;SDS011;51077;42.716;23.344;2022-12-17T03:10:52;13.82;;;9.20;;
64667;SDS011;51077;42.716;23.344;2022-12-17T03:13:36;14.10;;;9.38;;
64667;SDS011;51077;42.716;23.344;2022-12-17T03:16:20;15.90;;;9.23;;
64667;SDS011;51077;42.716;23.344;2022-12-17T03:19:04;13.65;;;8.95;;
64667;SDS011;51077;42.716;23.344;2022-12-17T03:21:48;14.52;;;9.10;;
64667;SDS011;51077;42.716;23.344;2022-12-17T03:24:32;12.60;;;8.48;;
64667;SDS011;51077;42.716;23.344;2022-12-17T03:27:16;12.77;;;8.20;;
64667;SDS011;51077;42.716;23.344;2022-12-17T03:30:00;13.73;;;8.57;;
64667;SDS011;51077;42.716;23.344;2022-12-17T03:32:44;14.05;;;7.82;;
64667;SDS011;51077;42.716;23.344;2022-12-17T03:35:28;14.43;;;9.15;;
64667;SDS011;51077;42.716;23.344;2022-12-17T03:38:12;12.38;;;8.10;;
64667;SDS011;51077;42.716;23.344;2022-12-17T03:40:56;12.85;;;8.23;;
64667;SDS011;51077;42.716;23.344;2022-12-17T03:43:41;13.10;;;7.63;;
64667;SDS011;51077;42.716;23.344;2022-12-17T03:46:25;12.10;;;7.40;;
64667;SDS011;51077;42.716;23.344;2022-12-17T03:49:10;13.68;;;7.45;;
64667;SDS011;51077;42.716;23.344;2022-12-17T03:51:54;12.43;;;7.47;;
64667;SDS011;51077;42.716;23.344;2022-12-17T03:54:37;12.55;;;7.93;;
64667;SDS011;51077;42.716;23.344;2022-12-17T03:57:21;13.00;;;7.70;;
64667;SDS011;51077;42.716;23.344;2022-12-17T04:00:05;11.40;;;8.07;;
64667;SDS011;51077;42.716;23.344;2022-12-17T04:02:50;14.18;;;7.97;;
64667;SDS011;51077;42.716;23.344;2022-12-17T04:05:34;11.30;;;7.13;;
64667;SDS011;51077;42.716;23.344;2022-12-17T04:08:17;14.23;;;7.88;;
64667;SDS011;51077;42.716;23.344;2022-12-17T04:11:02;13.13;;;8.25;;
64667;SDS011;51077;42.716;23.344;2022-12-17T04:13:45;14.63;;;8.65;;
64667;SDS011;51077;42.716;23.344;2022-12-17T04:16:29;12.30;;;7.93;;
64667;SDS011;51077;42.716;23.344;2022-12-17T04:19:13;12.98;;;7.55;;
64667;SDS011;51077;42.716;23.344;2022-12-17T04:21:57;11.50;;;7.57;;
64667;SDS011;51077;42.716;23.344;2022-12-17T04:24:41;11.40;;;7.13;;
64667;SDS011;51077;42.716;23.344;2022-12-17T04:27:26;10.85;;;7.10;;
64667;SDS011;51077;42.716;23.344;2022-12-17T04:30:10;12.93;;;7.68;;
64667;SDS011;51077;42.716;23.344;2022-12-17T04:32:54;14.45;;;8.70;;
64667;SDS011;51077;42.716;23.344;2022-12-17T04:35:38;10.63;;;7.55;;
64667;SDS011;51077;42.716;23.344;2022-12-17T04:38:22;11.80;;;8.00;;
64667;SDS011;51077;42.716;23.344;2022-12-17T04:41:06;11.90;;;7.75;;
64667;SDS011;51077;42.716;23.344;2022-12-17T04:43:49;11.75;;;7.53;;
64667;SDS011;51077;42.716;23.344;2022-12-17T04:46:33;12.70;;;7.63;;
64667;SDS011;51077;42.716;23.344;2022-12-17T04:49:17;11.85;;;8.02;;
64667;SDS011;51077;42.716;23.344;2022-12-17T04:52:01;11.35;;;7.50;;
64667;SDS011;51077;42.716;23.344;2022-12-17T04:54:45;10.65;;;7.57;;
64667;SDS011;51077;42.716;23.344;2022-12-17T04:57:29;11.38;;;7.28;;
64667;SDS011;51077;42.716;23.344;2022-12-17T05:00:13;13.25;;;7.70;;
64667;SDS011;51077;42.716;23.344;2022-12-17T05:03:08;12.35;;;7.85;;
64667;SDS011;51077;42.716;23.344;2022-12-17T05:06:12;11.60;;;6.85;;
64667;SDS011;51077;42.716;23.344;2022-12-17T05:08:56;12.30;;;7.47;;
64667;SDS011;51077;42.716;23.344;2022-12-17T05:11:40;11.95;;;7.60;;
64667;SDS011;51077;42.716;23.344;2022-12-17T05:14:24;13.27;;;7.50;;
64667;SDS011;51077;42.716;23.344;2022-12-17T05:17:08;10.98;;;7.65;;
64667;SDS011;51077;42.716;23.344;2022-12-17T05:19:52;12.48;;;7.30;;
64667;SDS011;51077;42.716;23.344;2022-12-17T05:22:36;10.43;;;6.97;;
64667;SDS011;51077;42.716;23.344;2022-12-17T05:25:20;12.38;;;8.10;;
64667;SDS011;51077;42.716;23.344;2022-12-17T05:28:04;11.25;;;7.35;;
64667;SDS011;51077;42.716;23.344;2022-12-17T05:30:51;15.88;;;8.73;;
64667;SDS011;51077;42.716;23.344;2022-12-17T05:33:36;11.82;;;8.55;;
64667;SDS011;51077;42.716;23.344;2022-12-17T05:36:20;11.73;;;8.02;;
64667;SDS011;51077;42.716;23.344;2022-12-17T05:39:04;13.88;;;8.40;;
64667;SDS011;51077;42.716;23.344;2022-12-17T05:41:48;13.52;;;8.38;;
64667;SDS011;51077;42.716;23.344;2022-12-17T05:44:32;13.52;;;8.88;;
64667;SDS011;51077;42.716;23.344;2022-12-17T05:47:16;12.15;;;8.32;;
64667;SDS011;51077;42.716;23.344;2022-12-17T05:50:00;12.40;;;7.72;;
64667;SDS011;51077;42.716;23.344;2022-12-17T05:52:44;11.45;;;7.85;;
64667;SDS011;51077;42.716;23.344;2022-12-17T05:55:28;12.45;;;8.07;;
64667;SDS011;51077;42.716;23.344;2022-12-17T05:58:12;12.52;;;8.40;;
64667;SDS011;51077;42.716;23.344;2022-12-17T06:00:56;12.27;;;8.32;;
64667;SDS011;51077;42.716;23.344;2022-12-17T06:03:42;15.48;;;8.05;;
64667;SDS011;51077;42.716;23.344;2022-12-17T06:06:26;12.20;;;8.10;;
64667;SDS011;51077;42.716;23.344;2022-12-17T06:09:10;15.60;;;8.90;;
64667;SDS011;51077;42.716;23.344;2022-12-17T06:11:54;13.48;;;8.40;;
64667;SDS011;51077;42.716;23.344;2022-12-17T06:14:38;16.80;;;9.30;;
64667;SDS011;51077;42.716;23.344;2022-12-17T06:17:22;12.75;;;9.13;;
64667;SDS011;51077;42.716;23.344;2022-12-17T06:20:07;16.45;;;9.57;;
64667;SDS011;51077;42.716;23.344;2022-12-17T06:22:58;16.48;;;10.18;;
64667;SDS011;51077;42.716;23.344;2022-12-17T06:25:46;15.32;;;9.43;;
64667;SDS011;51077;42.716;23.344;2022-12-17T06:28:30;16.02;;;9.63;;
64667;SDS011;51077;42.716;23.344;2022-12-17T06:31:14;17.25;;;10.73;;
64667;SDS011;51077;42.716;23.344;2022-12-17T06:33:58;16.50;;;9.70;;
64667;SDS011;51077;42.716;23.344;2022-12-17T06:36:42;13.45;;;8.65;;
64667;SDS011;51077;42.716;23.344;2022-12-17T06:39:27;18.08;;;9.45;;
64667;SDS011;51077;42.716;23.344;2022-12-17T06:42:11;14.82;;;9.75;;
64667;SDS011;51077;42.716;23.344;2022-12-17T06:44:55;13.82;;;9.68;;
64667;SDS011;51077;42.716;23.344;2022-12-17T06:47:39;15.00;;;9.60;;
64667;SDS011;51077;42.716;23.344;2022-12-17T06:50:23;21.17;;;9.77;;
64667;SDS011;51077;42.716;23.344;2022-12-17T06:53:07;15.38;;;9.60;;
64667;SDS011;51077;42.716;23.344;2022-12-17T06:55:51;13.93;;;9.30;;
64667;SDS011;51077;42.716;23.344;2022-12-17T06:58:35;17.00;;;9.90;;
64667;SDS011;51077;42.716;23.344;2022-12-17T07:01:19;15.57;;;10.25;;
64667;SDS011;51077;42.716;23.344;2022-12-17T07:04:04;16.42;;;11.23;;
64667;SDS011;51077;42.716;23.344;2022-12-17T07:06:48;19.05;;;10.40;;
64667;SDS011;51077;42.716;23.344;2022-12-17T07:09:32;14.75;;;9.52;;
64667;SDS011;51077;42.716;23.344;2022-12-17T07:12:16;16.40;;;10.63;;
64667;SDS011;51077;42.716;23.344;2022-12-17T07:15:00;16.15;;;11.27;;
64667;SDS011;51077;42.716;23.344;2022-12-17T07:17:56;15.70;;;10.32;;
64667;SDS011;51077;42.716;23.344;2022-12-17T07:20:43;18.33;;;10.90;;
64667;SDS011;51077;42.716;23.344;2022-12-17T07:23:27;19.42;;;10.35;;
64667;SDS011;51077;42.716;23.344;2022-12-17T07:26:11;17.05;;;10.13;;
64667;SDS011;51077;42.716;23.344;2022-12-17T07:28:55;23.33;;;14.73;;
64667;SDS011;51077;42.716;23.344;2022-12-17T07:31:38;25.70;;;15.40;;
64667;SDS011;51077;42.716;23.344;2022-12-17T07:34:24;20.92;;;14.18;;
64667;SDS011;51077;42.716;23.344;2022-12-17T07:37:07;20.48;;;12.88;;
64667;SDS011;51077;42.716;23.344;2022-12-17T07:39:52;19.38;;;12.25;;
64667;SDS011;51077;42.716;23.344;2022-12-17T07:42:35;16.98;;;11.52;;
64667;SDS011;51077;42.716;23.344;2022-12-17T07:45:21;17.67;;;11.10;;
64667;SDS011;51077;42.716;23.344;2022-12-17T07:48:05;18.27;;;11.30;;
64667;SDS011;51077;42.716;23.344;2022-12-17T07:50:49;18.65;;;10.60;;
64667;SDS011;51077;42.716;23.344;2022-12-17T07:53:33;13.98;;;8.68;;
64667;SDS011;51077;42.716;23.344;2022-12-17T07:56:18;14.07;;;7.78;;
64667;SDS011;51077;42.716;23.344;2022-12-17T07:59:02;18.80;;;8.73;;
64667;SDS011;51077;42.716;23.344;2022-12-17T08:04:30;13.95;;;7.88;;
64667;SDS011;51077;42.716;23.344;2022-12-17T08:07:15;13.68;;;8.18;;
64667;SDS011;51077;42.716;23.344;2022-12-17T08:09:58;15.95;;;10.55;;
64667;SDS011;51077;42.716;23.344;2022-12-17T08:12:56;20.67;;;13.40;;
64667;SDS011;51077;42.716;23.344;2022-12-17T08:15:45;18.85;;;11.70;;
64667;SDS011;51077;42.716;23.344;2022-12-17T08:18:29;15.57;;;10.50;;
64667;SDS011;51077;42.716;23.344;2022-12-17T08:21:16;20.33;;;12.13;;
64667;SDS011;51077;42.716;23.344;2022-12-17T08:24:00;22.90;;;15.82;;
64667;SDS011;51077;42.716;23.344;2022-12-17T08:26:44;24.55;;;14.13;;
64667;SDS011;51077;42.716;23.344;2022-12-17T08:29:28;24.42;;;16.35;;
64667;SDS011;51077;42.716;23.344;2022-12-17T08:32:12;23.67;;;15.73;;
64667;SDS011;51077;42.716;23.344;2022-12-17T08:34:56;26.35;;;16.05;;
64667;SDS011;51077;42.716;23.344;2022-12-17T08:37:40;27.33;;;16.90;;
64667;SDS011;51077;42.716;23.344;2022-12-17T08:40:24;24.38;;;15.93;;
64667;SDS011;51077;42.716;23.344;2022-12-17T08:43:07;27.27;;;15.45;;
64667;SDS011;51077;42.716;23.344;2022-12-17T08:45:51;37.85;;;21.05;;
64667;SDS011;51077;42.716;23.344;2022-12-17T08:48:35;28.20;;;15.88;;
64667;SDS011;51077;42.716;23.344;2022-12-17T08:51:21;23.73;;;13.52;;
64667;SDS011;51077;42.716;23.344;2022-12-17T08:54:05;17.33;;;9.23;;
64667;SDS011;51077;42.716;23.344;2022-12-17T08:56:49;15.00;;;8.48;;
64667;SDS011;51077;42.716;23.344;2022-12-17T08:59:33;11.90;;;6.72;;
64667;SDS011;51077;42.716;23.344;2022-12-17T09:02:17;12.85;;;7.60;;
64667;SDS011;51077;42.716;23.344;2022-12-17T09:05:01;10.63;;;6.30;;
64667;SDS011;51077;42.716;23.344;2022-12-17T09:07:45;12.05;;;7.35;;
64667;SDS011;51077;42.716;23.344;2022-12-17T09:10:29;10.32;;;6.43;;
64667;SDS011;51077;42.716;23.344;2022-12-17T09:13:13;11.52;;;6.20;;
64667;SDS011;51077;42.716;23.344;2022-12-17T09:15:57;10.35;;;5.80;;
64667;SDS011;51077;42.716;23.344;2022-12-17T09:18:41;9.77;;;5.90;;
64667;SDS011;51077;42.716;23.344;2022-12-17T09:24:11;11.07;;;5.65;;
64667;SDS011;51077;42.716;23.344;2022-12-17T09:26:55;9.48;;;5.85;;
64667;SDS011;51077;42.716;23.344;2022-12-17T09:29:39;9.45;;;5.68;;
64667;SDS011;51077;42.716;23.344;2022-12-17T09:32:23;9.20;;;5.55;;
64667;SDS011;51077;42.716;23.344;2022-12-17T09:35:07;9.27;;;5.65;;
64667;SDS011;51077;42.716;23.344;2022-12-17T09:37:54;9.27;;;4.50;;
64667;SDS011;51077;42.716;23.344;2022-12-17T09:40:39;8.75;;;4.05;;
64667;SDS011;51077;42.716;23.344;2022-12-17T09:49:16;12.73;;;5.00;;
64667;SDS011;51077;42.716;23.344;2022-12-17T09:52:07;7.63;;;4.70;;
64667;SDS011;51077;42.716;23.344;2022-12-17T09:58:02;9.55;;;4.80;;
64667;SDS011;51077;42.716;23.344;2022-12-17T10:03:31;6.85;;;3.60;;
64667;SDS011;51077;42.716;23.344;2022-12-17T10:06:19;17.45;;;6.97;;
64667;SDS011;51077;42.716;23.344;2022-12-17T10:09:10;17.63;;;7.78;;
64667;SDS011;51077;42.716;23.344;2022-12-17T10:11:56;13.70;;;6.30;;
64667;SDS011;51077;42.716;23.344;2022-12-17T10:14:45;13.70;;;6.00;;
64667;SDS011;51077;42.716;23.344;2022-12-17T10:17:29;11.02;;;5.22;;
64667;SDS011;51077;42.716;23.344;2022-12-17T10:20:16;11.05;;;4.80;;
64667;SDS011;51077;42.716;23.344;2022-12-17T10:23:28;9.05;;;4.35;;
64667;SDS011;51077;42.716;23.344;2022-12-17T10:29:13;12.48;;;6.55;;
64667;SDS011;51077;42.716;23.344;2022-12-17T10:32:07;13.75;;;8.23;;
64667;SDS011;51077;42.716;23.344;2022-12-17T10:34:54;22.95;;;9.65;;
64667;SDS011;51077;42.716;23.344;2022-12-17T10:37:38;23.95;;;11.82;;
64667;SDS011;51077;42.716;23.344;2022-12-17T10:40:24;17.15;;;9.68;;
64667;SDS011;51077;42.716;23.344;2022-12-17T10:46:27;8.57;;;5.00;;
64667;SDS011;51077;42.716;23.344;2022-12-17T10:49:19;5.45;;;3.05;;
64667;SDS011;51077;42.716;23.344;2022-12-17T10:55:24;4.05;;;2.15;;
64667;SDS011;51077;42.716;23.344;2022-12-17T10:58:20;5.45;;;2.20;;
64667;SDS011;51077;42.716;23.344;2022-12-17T11:01:11;3.78;;;1.92;;
64667;SDS011;51077;42.716;23.344;2022-12-17T11:04:17;3.53;;;1.70;;
64667;SDS011;51077;42.716;23.344;2022-12-17T11:07:32;6.55;;;2.50;;
64667;SDS011;51077;42.716;23.344;2022-12-17T11:10:20;4.57;;;1.95;;
64667;SDS011;51077;42.716;23.344;2022-12-17T11:13:14;3.40;;;1.88;;
64667;SDS011;51077;42.716;23.344;2022-12-17T11:16:11;3.30;;;1.60;;
64667;SDS011;51077;42.716;23.344;2022-12-17T11:20:04;3.30;;;1.50;;
64667;SDS011;51077;42.716;23.344;2022-12-17T11:22:38;3.97;;;1.58;;
64667;SDS011;51077;42.716;23.344;2022-12-17T11:28:23;4.75;;;1.95;;
64667;SDS011;51077;42.716;23.344;2022-12-17T11:37:09;6.75;;;2.60;;
64667;SDS011;51077;42.716;23.344;2022-12-17T11:43:04;5.60;;;2.72;;
64667;SDS011;51077;42.716;23.344;2022-12-17T11:49:07;4.88;;;2.40;;
64667;SDS011;51077;42.716;23.344;2022-12-17T11:52:17;6.95;;;3.05;;
64667;SDS011;51077;42.716;23.344;2022-12-17T11:58:40;7.07;;;2.90;;
64667;SDS011;51077;42.716;23.344;2022-12-17T12:01:38;6.10;;;2.90;;
64667;SDS011;51077;42.716;23.344;2022-12-17T12:07:50;7.65;;;3.70;;
64667;SDS011;51077;42.716;23.344;2022-12-17T12:13:56;5.95;;;3.15;;
64667;SDS011;51077;42.716;23.344;2022-12-17T12:17:17;6.32;;;3.30;;
64667;SDS011;51077;42.716;23.344;2022-12-17T12:19:55;8.95;;;4.15;;
64667;SDS011;51077;42.716;23.344;2022-12-17T12:23:09;6.47;;;4.07;;
64667;SDS011;51077;42.716;23.344;2022-12-17T12:28:52;10.43;;;5.00;;
64667;SDS011;51077;42.716;23.344;2022-12-17T12:34:39;9.25;;;4.97;;
64667;SDS011;51077;42.716;23.344;2022-12-17T12:37:26;10.30;;;5.22;;
64667;SDS011;51077;42.716;23.344;2022-12-17T12:43:17;12.20;;;6.72;;
64667;SDS011;51077;42.716;23.344;2022-12-17T12:46:12;12.75;;;6.55;;
64667;SDS011;51077;42.716;23.344;2022-12-17T12:52:01;14.30;;;7.20;;
64667;SDS011;51077;42.716;23.344;2022-12-17T12:57:31;11.25;;;6.72;;
64667;SDS011;51077;42.716;23.344;2022-12-17T13:00:36;10.88;;;6.68;;
64667;SDS011;51077;42.716;23.344;2022-12-17T13:06:09;11.45;;;6.32;;
64667;SDS011;51077;42.716;23.344;2022-12-17T13:08:36;12.20;;;6.60;;
64667;SDS011;51077;42.716;23.344;2022-12-17T13:11:25;10.73;;;6.53;;
64667;SDS011;51077;42.716;23.344;2022-12-17T13:13:53;10.82;;;6.53;;
64667;SDS011;51077;42.716;23.344;2022-12-17T13:24:43;12.40;;;7.95;;
64667;SDS011;51077;42.716;23.344;2022-12-17T13:29:56;11.85;;;7.05;;
64667;SDS011;51077;42.716;23.344;2022-12-17T13:37:59;13.25;;;8.43;;
64667;SDS011;51077;42.716;23.344;2022-12-17T13:40:44;13.43;;;7.85;;
64667;SDS011;51077;42.716;23.344;2022-12-17T13:43:21;13.10;;;7.82;;
64667;SDS011;51077;42.716;23.344;2022-12-17T13:45:51;11.43;;;8.00;;
64667;SDS011;51077;42.716;23.344;2022-12-17T13:48:20;13.93;;;7.97;;
64667;SDS011;51077;42.716;23.344;2022-12-17T13:51:00;13.00;;;8.48;;
64667;SDS011;51077;42.716;23.344;2022-12-17T13:53:29;12.65;;;7.72;;
64667;SDS011;51077;42.716;23.344;2022-12-17T13:55:59;11.55;;;7.38;;
64667;SDS011;51077;42.716;23.344;2022-12-17T13:58:29;14.15;;;7.57;;
64667;SDS011;51077;42.716;23.344;2022-12-17T14:01:03;10.68;;;7.20;;
64667;SDS011;51077;42.716;23.344;2022-12-17T14:03:33;12.20;;;7.55;;
64667;SDS011;51077;42.716;23.344;2022-12-17T14:05:58;12.70;;;7.43;;
64667;SDS011;51077;42.716;23.344;2022-12-17T14:08:25;14.97;;;7.90;;
64667;SDS011;51077;42.716;23.344;2022-12-17T14:10:54;12.55;;;7.63;;
64667;SDS011;51077;42.716;23.344;2022-12-17T14:13:39;13.77;;;8.52;;
64667;SDS011;51077;42.716;23.344;2022-12-17T14:16:06;13.48;;;8.25;;
64667;SDS011;51077;42.716;23.344;2022-12-17T14:18:31;13.63;;;8.77;;
64667;SDS011;51077;42.716;23.344;2022-12-17T14:20:57;14.77;;;9.33;;
64667;SDS011;51077;42.716;23.344;2022-12-17T14:23:25;12.10;;;8.40;;
64667;SDS011;51077;42.716;23.344;2022-12-17T14:25:57;13.43;;;8.50;;
64667;SDS011;51077;42.716;23.344;2022-12-17T14:31:02;17.13;;;11.25;;
64667;SDS011;51077;42.716;23.344;2022-12-17T14:34:01;17.33;;;11.77;;
64667;SDS011;51077;42.716;23.344;2022-12-17T14:39:24;19.92;;;12.48;;
64667;SDS011;51077;42.716;23.344;2022-12-17T14:41:50;22.85;;;13.32;;
64667;SDS011;51077;42.716;23.344;2022-12-17T14:44:34;21.05;;;13.00;;
64667;SDS011;51077;42.716;23.344;2022-12-17T14:47:28;22.60;;;13.43;;
64667;SDS011;51077;42.716;23.344;2022-12-17T14:49:58;19.20;;;13.30;;
64667;SDS011;51077;42.716;23.344;2022-12-17T14:52:29;21.80;;;13.50;;
64667;SDS011;51077;42.716;23.344;2022-12-17T14:57:47;20.20;;;13.13;;
64667;SDS011;51077;42.716;23.344;2022-12-17T15:00:13;20.00;;;12.82;;
64667;SDS011;51077;42.716;23.344;2022-12-17T15:02:39;23.55;;;15.35;;
64667;SDS011;51077;42.716;23.344;2022-12-17T15:05:10;15.00;;;9.52;;
64667;SDS011;51077;42.716;23.344;2022-12-17T15:07:38;11.73;;;8.02;;
64667;SDS011;51077;42.716;23.344;2022-12-17T15:10:08;13.23;;;9.10;;
64667;SDS011;51077;42.716;23.344;2022-12-17T15:12:35;16.55;;;11.07;;
64667;SDS011;51077;42.716;23.344;2022-12-17T15:15:00;17.67;;;10.23;;
64667;SDS011;51077;42.716;23.344;2022-12-17T15:17:26;20.50;;;12.57;;
64667;SDS011;51077;42.716;23.344;2022-12-17T15:19:52;20.20;;;11.77;;
64667;SDS011;51077;42.716;23.344;2022-12-17T15:22:17;23.73;;;13.13;;
64667;SDS011;51077;42.716;23.344;2022-12-17T15:24:43;23.20;;;13.37;;
64667;SDS011;51077;42.716;23.344;2022-12-17T15:27:13;29.08;;;18.50;;
64667;SDS011;51077;42.716;23.344;2022-12-17T15:29:41;26.65;;;15.95;;
64667;SDS011;51077;42.716;23.344;2022-12-17T15:32:09;25.90;;;15.70;;
64667;SDS011;51077;42.716;23.344;2022-12-17T15:34:46;39.58;;;22.17;;
64667;SDS011;51077;42.716;23.344;2022-12-17T15:37:13;34.65;;;19.40;;
64667;SDS011;51077;42.716;23.344;2022-12-17T15:39:39;31.13;;;19.55;;
64667;SDS011;51077;42.716;23.344;2022-12-17T15:42:05;35.73;;;19.67;;
64667;SDS011;51077;42.716;23.344;2022-12-17T15:44:49;36.05;;;20.27;;
64667;SDS011;51077;42.716;23.344;2022-12-17T15:47:16;33.88;;;19.05;;
64667;SDS011;51077;42.716;23.344;2022-12-17T15:49:41;32.17;;;19.23;;
64667;SDS011;51077;42.716;23.344;2022-12-17T15:52:08;33.95;;;19.17;;
64667;SDS011;51077;42.716;23.344;2022-12-17T15:54:34;32.13;;;20.97;;
64667;SDS011;51077;42.716;23.344;2022-12-17T15:56:59;35.13;;;21.70;;
64667;SDS011;51077;42.716;23.344;2022-12-17T15:59:25;40.53;;;25.13;;
64667;SDS011;51077;42.716;23.344;2022-12-17T16:01:50;44.40;;;26.73;;
64667;SDS011;51077;42.716;23.344;2022-12-17T16:04:16;57.03;;;31.90;;
64667;SDS011;51077;42.716;23.344;2022-12-17T16:06:41;52.80;;;29.80;;
64667;SDS011;51077;42.716;23.344;2022-12-17T16:09:07;54.70;;;30.80;;
64667;SDS011;51077;42.716;23.344;2022-12-17T16:11:32;49.43;;;29.43;;
64667;SDS011;51077;42.716;23.344;2022-12-17T16:13:58;52.17;;;29.83;;
64667;SDS011;51077;42.716;23.344;2022-12-17T16:16:23;55.10;;;33.27;;
64667;SDS011;51077;42.716;23.344;2022-12-17T16:18:49;73.37;;;39.83;;
64667;SDS011;51077;42.716;23.344;2022-12-17T16:21:14;76.03;;;39.20;;
64667;SDS011;51077;42.716;23.344;2022-12-17T16:23:40;74.30;;;40.63;;
64667;SDS011;51077;42.716;23.344;2022-12-17T16:26:07;65.72;;;37.25;;
64667;SDS011;51077;42.716;23.344;2022-12-17T16:28:35;69.18;;;39.28;;
64667;SDS011;51077;42.716;23.344;2022-12-17T16:31:02;65.93;;;37.47;;
64667;SDS011;51077;42.716;23.344;2022-12-17T16:33:39;64.88;;;38.00;;
64667;SDS011;51077;42.716;23.344;2022-12-17T16:36:06;65.15;;;39.00;;
64667;SDS011;51077;42.716;23.344;2022-12-17T16:38:35;61.97;;;35.53;;
64667;SDS011;51077;42.716;23.344;2022-12-17T16:41:06;59.50;;;36.22;;
64667;SDS011;51077;42.716;23.344;2022-12-17T16:43:32;55.13;;;34.37;;
64667;SDS011;51077;42.716;23.344;2022-12-17T16:45:58;59.40;;;34.97;;
64667;SDS011;51077;42.716;23.344;2022-12-17T16:48:23;52.67;;;32.57;;
64667;SDS011;51077;42.716;23.344;2022-12-17T16:50:49;51.60;;;32.13;;
64667;SDS011;51077;42.716;23.344;2022-12-17T16:53:16;58.65;;;33.90;;
64667;SDS011;51077;42.716;23.344;2022-12-17T16:55:46;54.15;;;32.95;;
64667;SDS011;51077;42.716;23.344;2022-12-17T16:58:13;51.42;;;31.48;;
64667;SDS011;51077;42.716;23.344;2022-12-17T17:00:40;47.05;;;31.05;;
64667;SDS011;51077;42.716;23.344;2022-12-17T17:03:06;51.58;;;30.90;;
64667;SDS011;51077;42.716;23.344;2022-12-17T17:05:36;45.50;;;29.65;;
64667;SDS011;51077;42.716;23.344;2022-12-17T17:08:03;48.13;;;31.00;;
64667;SDS011;51077;42.716;23.344;2022-12-17T17:10:29;47.15;;;30.08;;
64667;SDS011;51077;42.716;23.344;2022-12-17T17:12:55;48.35;;;28.25;;
64667;SDS011;51077;42.716;23.344;2022-12-17T17:15:21;52.03;;;28.63;;
64667;SDS011;51077;42.716;23.344;2022-12-17T17:17:47;45.08;;;29.10;;
64667;SDS011;51077;42.716;23.344;2022-12-17T17:20:13;49.05;;;29.33;;
64667;SDS011;51077;42.716;23.344;2022-12-17T17:22:39;46.42;;;29.25;;
64667;SDS011;51077;42.716;23.344;2022-12-17T17:25:05;46.13;;;28.97;;
64667;SDS011;51077;42.716;23.344;2022-12-17T17:27:31;43.50;;;27.77;;
64667;SDS011;51077;42.716;23.344;2022-12-17T17:29:56;41.70;;;27.47;;
64667;SDS011;51077;42.716;23.344;2022-12-17T17:32:23;42.40;;;28.38;;